sensor_id;sensor_type;location;lat;lon;timestamp;P1;durP1;ratioP1;P2;durP2;ratioP2
32649;SDS011;19055;51.064;3.712;2022-07-21T00:01:01;8.20;;;5.10;;
32649;SDS011;19055;51.064;3.712;2022-07-21T00:03:27;7.05;;;5.40;;
32649;SDS011;19055;51.064;3.712;2022-07-21T00:05:53;7.65;;;5.07;;
32649;SDS011;19055;51.064;3.712;2022-07-21T00:08:18;10.02;;;5.20;;
32649;SDS011;19055;51.064;3.712;2022-07-21T00:10:44;7.65;;;4.93;;
32649;SDS011;19055;51.064;3.712;2022-07-21T00:13:10;7.95;;;5.05;;
32649;SDS011;19055;51.064;3.712;2022-07-21T00:15:36;7.25;;;4.90;;
32649;SDS011;19055;51.064;3.712;2022-07-21T00:18:01;8.07;;;5.68;;
32649;SDS011;19055;51.064;3.712;2022-07-21T00:20:27;8.88;;;5.10;;
32649;SDS011;19055;51.064;3.712;2022-07-21T00:22:55;11.13;;;6.03;;
32649;SDS011;19055;51.064;3.712;2022-07-21T00:25:21;9.07;;;5.43;;
32649;SDS011;19055;51.064;3.712;2022-07-21T00:27:47;9.55;;;5.63;;
32649;SDS011;19055;51.064;3.712;2022-07-21T00:30:13;11.45;;;6.03;;
32649;SDS011;19055;51.064;3.712;2022-07-21T00:32:40;11.43;;;5.75;;
32649;SDS011;19055;51.064;3.712;2022-07-21T00:35:07;9.85;;;6.00;;
32649;SDS011;19055;51.064;3.712;2022-07-21T00:37:34;10.68;;;5.82;;
32649;SDS011;19055;51.064;3.712;2022-07-21T00:40:00;10.52;;;5.75;;
32649;SDS011;19055;51.064;3.712;2022-07-21T00:42:29;11.93;;;7.00;;
32649;SDS011;19055;51.064;3.712;2022-07-21T00:44:56;13.93;;;7.18;;
32649;SDS011;19055;51.064;3.712;2022-07-21T00:47:23;13.40;;;6.90;;
32649;SDS011;19055;51.064;3.712;2022-07-21T00:49:51;10.25;;;6.05;;
32649;SDS011;19055;51.064;3.712;2022-07-21T00:52:18;11.23;;;6.65;;
32649;SDS011;19055;51.064;3.712;2022-07-21T00:54:43;9.00;;;6.10;;
32649;SDS011;19055;51.064;3.712;2022-07-21T00:57:10;13.00;;;6.68;;
32649;SDS011;19055;51.064;3.712;2022-07-21T00:59:37;11.57;;;6.47;;
32649;SDS011;19055;51.064;3.712;2022-07-21T01:02:03;13.57;;;6.32;;
32649;SDS011;19055;51.064;3.712;2022-07-21T01:04:30;8.60;;;6.40;;
32649;SDS011;19055;51.064;3.712;2022-07-21T01:06:56;11.40;;;6.60;;
32649;SDS011;19055;51.064;3.712;2022-07-21T01:09:22;11.13;;;6.50;;
32649;SDS011;19055;51.064;3.712;2022-07-21T01:11:48;12.65;;;6.68;;
32649;SDS011;19055;51.064;3.712;2022-07-21T01:14:14;12.48;;;6.20;;
32649;SDS011;19055;51.064;3.712;2022-07-21T01:16:41;15.27;;;6.00;;
32649;SDS011;19055;51.064;3.712;2022-07-21T01:19:08;9.98;;;5.88;;
32649;SDS011;19055;51.064;3.712;2022-07-21T01:21:36;11.63;;;6.50;;
32649;SDS011;19055;51.064;3.712;2022-07-21T01:24:03;11.15;;;6.45;;
32649;SDS011;19055;51.064;3.712;2022-07-21T01:26:30;12.68;;;6.15;;
32649;SDS011;19055;51.064;3.712;2022-07-21T01:29:04;10.25;;;5.88;;
32649;SDS011;19055;51.064;3.712;2022-07-21T01:31:29;13.55;;;6.90;;
32649;SDS011;19055;51.064;3.712;2022-07-21T01:33:55;11.55;;;5.85;;
32649;SDS011;19055;51.064;3.712;2022-07-21T01:36:21;10.57;;;6.63;;
32649;SDS011;19055;51.064;3.712;2022-07-21T01:38:47;13.88;;;6.45;;
32649;SDS011;19055;51.064;3.712;2022-07-21T01:41:31;9.45;;;6.38;;
32649;SDS011;19055;51.064;3.712;2022-07-21T01:44:08;10.77;;;6.53;;
32649;SDS011;19055;51.064;3.712;2022-07-21T01:46:38;10.90;;;5.88;;
32649;SDS011;19055;51.064;3.712;2022-07-21T01:49:05;12.02;;;6.55;;
32649;SDS011;19055;51.064;3.712;2022-07-21T01:51:32;12.38;;;6.18;;
32649;SDS011;19055;51.064;3.712;2022-07-21T01:53:59;9.75;;;6.47;;
32649;SDS011;19055;51.064;3.712;2022-07-21T01:56:25;11.32;;;6.85;;
32649;SDS011;19055;51.064;3.712;2022-07-21T01:58:53;12.32;;;6.40;;
32649;SDS011;19055;51.064;3.712;2022-07-21T02:01:21;12.38;;;6.53;;
32649;SDS011;19055;51.064;3.712;2022-07-21T02:03:48;11.82;;;7.18;;
32649;SDS011;19055;51.064;3.712;2022-07-21T02:06:14;13.45;;;6.55;;
32649;SDS011;19055;51.064;3.712;2022-07-21T02:08:40;9.57;;;6.70;;
32649;SDS011;19055;51.064;3.712;2022-07-21T02:11:10;15.02;;;7.30;;
32649;SDS011;19055;51.064;3.712;2022-07-21T02:13:37;13.70;;;6.30;;
32649;SDS011;19055;51.064;3.712;2022-07-21T02:16:03;11.00;;;7.35;;
32649;SDS011;19055;51.064;3.712;2022-07-21T02:18:30;12.40;;;7.10;;
32649;SDS011;19055;51.064;3.712;2022-07-21T02:20:56;11.27;;;7.40;;
32649;SDS011;19055;51.064;3.712;2022-07-21T02:23:22;9.60;;;6.75;;
32649;SDS011;19055;51.064;3.712;2022-07-21T02:25:50;13.52;;;7.40;;
32649;SDS011;19055;51.064;3.712;2022-07-21T02:28:17;20.23;;;8.15;;
32649;SDS011;19055;51.064;3.712;2022-07-21T02:30:44;17.38;;;8.23;;
32649;SDS011;19055;51.064;3.712;2022-07-21T02:33:10;11.70;;;7.50;;
32649;SDS011;19055;51.064;3.712;2022-07-21T02:35:37;14.57;;;7.88;;
32649;SDS011;19055;51.064;3.712;2022-07-21T02:38:03;12.90;;;8.25;;
32649;SDS011;19055;51.064;3.712;2022-07-21T02:40:29;14.27;;;8.07;;
32649;SDS011;19055;51.064;3.712;2022-07-21T02:42:55;10.85;;;7.38;;
32649;SDS011;19055;51.064;3.712;2022-07-21T02:45:21;17.17;;;8.00;;
32649;SDS011;19055;51.064;3.712;2022-07-21T02:47:57;15.55;;;9.05;;
32649;SDS011;19055;51.064;3.712;2022-07-21T02:50:23;14.85;;;8.55;;
32649;SDS011;19055;51.064;3.712;2022-07-21T02:52:54;13.20;;;8.60;;
32649;SDS011;19055;51.064;3.712;2022-07-21T02:55:21;13.45;;;8.38;;
32649;SDS011;19055;51.064;3.712;2022-07-21T02:57:48;19.77;;;9.52;;
32649;SDS011;19055;51.064;3.712;2022-07-21T03:00:14;12.48;;;8.88;;
32649;SDS011;19055;51.064;3.712;2022-07-21T03:02:40;13.63;;;8.68;;
32649;SDS011;19055;51.064;3.712;2022-07-21T03:05:06;18.15;;;9.45;;
32649;SDS011;19055;51.064;3.712;2022-07-21T03:07:32;14.27;;;9.95;;
32649;SDS011;19055;51.064;3.712;2022-07-21T03:09:58;15.85;;;10.48;;
32649;SDS011;19055;51.064;3.712;2022-07-21T03:12:24;17.88;;;11.00;;
32649;SDS011;19055;51.064;3.712;2022-07-21T03:14:49;14.63;;;11.55;;
32649;SDS011;19055;51.064;3.712;2022-07-21T03:17:15;23.23;;;13.70;;
32649;SDS011;19055;51.064;3.712;2022-07-21T03:19:41;20.77;;;14.18;;
32649;SDS011;19055;51.064;3.712;2022-07-21T03:22:07;22.60;;;15.63;;
32649;SDS011;19055;51.064;3.712;2022-07-21T03:24:32;21.80;;;15.18;;
32649;SDS011;19055;51.064;3.712;2022-07-21T03:26:58;24.88;;;16.00;;
32649;SDS011;19055;51.064;3.712;2022-07-21T03:29:24;26.65;;;16.15;;
32649;SDS011;19055;51.064;3.712;2022-07-21T03:31:49;24.38;;;16.92;;
32649;SDS011;19055;51.064;3.712;2022-07-21T03:34:15;27.83;;;16.30;;
32649;SDS011;19055;51.064;3.712;2022-07-21T03:36:41;24.20;;;17.92;;
32649;SDS011;19055;51.064;3.712;2022-07-21T03:39:07;24.73;;;17.92;;
32649;SDS011;19055;51.064;3.712;2022-07-21T03:41:32;23.17;;;18.25;;
32649;SDS011;19055;51.064;3.712;2022-07-21T03:43:58;33.47;;;20.48;;
32649;SDS011;19055;51.064;3.712;2022-07-21T03:46:24;28.92;;;21.38;;
32649;SDS011;19055;51.064;3.712;2022-07-21T03:48:50;39.45;;;23.42;;
32649;SDS011;19055;51.064;3.712;2022-07-21T03:51:15;32.15;;;22.73;;
32649;SDS011;19055;51.064;3.712;2022-07-21T03:53:41;35.08;;;22.30;;
32649;SDS011;19055;51.064;3.712;2022-07-21T03:56:07;35.20;;;23.85;;
32649;SDS011;19055;51.064;3.712;2022-07-21T03:58:33;36.10;;;24.20;;
32649;SDS011;19055;51.064;3.712;2022-07-21T04:00:58;34.20;;;24.30;;
32649;SDS011;19055;51.064;3.712;2022-07-21T04:03:24;40.67;;;25.85;;
32649;SDS011;19055;51.064;3.712;2022-07-21T04:05:50;32.90;;;24.38;;
32649;SDS011;19055;51.064;3.712;2022-07-21T04:08:16;35.20;;;25.23;;
32649;SDS011;19055;51.064;3.712;2022-07-21T04:10:42;30.60;;;24.60;;
32649;SDS011;19055;51.064;3.712;2022-07-21T04:13:09;36.33;;;25.50;;
32649;SDS011;19055;51.064;3.712;2022-07-21T04:15:37;32.67;;;24.67;;
32649;SDS011;19055;51.064;3.712;2022-07-21T04:18:03;33.50;;;24.20;;
32649;SDS011;19055;51.064;3.712;2022-07-21T04:20:30;34.15;;;24.98;;
32649;SDS011;19055;51.064;3.712;2022-07-21T04:22:56;29.75;;;24.88;;
32649;SDS011;19055;51.064;3.712;2022-07-21T04:25:22;30.92;;;25.10;;
32649;SDS011;19055;51.064;3.712;2022-07-21T04:27:48;29.17;;;24.38;;
32649;SDS011;19055;51.064;3.712;2022-07-21T04:30:16;33.63;;;25.98;;
32649;SDS011;19055;51.064;3.712;2022-07-21T04:32:44;33.10;;;24.88;;
32649;SDS011;19055;51.064;3.712;2022-07-21T04:35:10;36.22;;;27.42;;
32649;SDS011;19055;51.064;3.712;2022-07-21T04:37:37;35.22;;;25.92;;
32649;SDS011;19055;51.064;3.712;2022-07-21T04:40:03;35.85;;;26.63;;
32649;SDS011;19055;51.064;3.712;2022-07-21T04:42:30;31.88;;;25.88;;
32649;SDS011;19055;51.064;3.712;2022-07-21T04:44:56;39.30;;;26.88;;
32649;SDS011;19055;51.064;3.712;2022-07-21T04:47:22;34.28;;;27.92;;
32649;SDS011;19055;51.064;3.712;2022-07-21T04:49:48;38.33;;;27.13;;
32649;SDS011;19055;51.064;3.712;2022-07-21T04:52:14;42.20;;;29.80;;
32649;SDS011;19055;51.064;3.712;2022-07-21T04:54:40;36.13;;;28.60;;
32649;SDS011;19055;51.064;3.712;2022-07-21T04:57:06;50.85;;;38.75;;
32649;SDS011;19055;51.064;3.712;2022-07-21T04:59:32;44.88;;;31.10;;
32649;SDS011;19055;51.064;3.712;2022-07-21T05:01:59;42.35;;;28.75;;
32649;SDS011;19055;51.064;3.712;2022-07-21T05:04:25;40.35;;;30.55;;
32649;SDS011;19055;51.064;3.712;2022-07-21T05:06:51;43.60;;;29.70;;
32649;SDS011;19055;51.064;3.712;2022-07-21T05:09:17;48.30;;;33.22;;
32649;SDS011;19055;51.064;3.712;2022-07-21T05:11:43;40.40;;;30.27;;
32649;SDS011;19055;51.064;3.712;2022-07-21T05:14:08;42.05;;;31.55;;
32649;SDS011;19055;51.064;3.712;2022-07-21T05:16:34;48.22;;;32.78;;
32649;SDS011;19055;51.064;3.712;2022-07-21T05:19:00;45.40;;;32.03;;
32649;SDS011;19055;51.064;3.712;2022-07-21T05:21:26;46.90;;;33.17;;
32649;SDS011;19055;51.064;3.712;2022-07-21T05:23:52;48.55;;;34.83;;
32649;SDS011;19055;51.064;3.712;2022-07-21T05:26:18;51.65;;;35.38;;
32649;SDS011;19055;51.064;3.712;2022-07-21T05:28:43;53.60;;;34.92;;
32649;SDS011;19055;51.064;3.712;2022-07-21T05:31:09;52.45;;;38.28;;
32649;SDS011;19055;51.064;3.712;2022-07-21T05:33:35;58.95;;;37.60;;
32649;SDS011;19055;51.064;3.712;2022-07-21T05:36:02;55.22;;;38.60;;
32649;SDS011;19055;51.064;3.712;2022-07-21T05:38:28;54.17;;;37.60;;
32649;SDS011;19055;51.064;3.712;2022-07-21T05:40:54;57.75;;;38.58;;
32649;SDS011;19055;51.064;3.712;2022-07-21T05:43:20;59.67;;;38.83;;
32649;SDS011;19055;51.064;3.712;2022-07-21T05:45:46;50.42;;;35.05;;
32649;SDS011;19055;51.064;3.712;2022-07-21T05:48:12;69.38;;;40.33;;
32649;SDS011;19055;51.064;3.712;2022-07-21T05:50:39;62.40;;;40.47;;
32649;SDS011;19055;51.064;3.712;2022-07-21T05:53:05;67.15;;;40.70;;
32649;SDS011;19055;51.064;3.712;2022-07-21T05:55:31;58.47;;;38.35;;
32649;SDS011;19055;51.064;3.712;2022-07-21T05:57:56;63.85;;;39.75;;
32649;SDS011;19055;51.064;3.712;2022-07-21T06:00:22;59.65;;;38.38;;
32649;SDS011;19055;51.064;3.712;2022-07-21T06:02:48;64.53;;;39.28;;
32649;SDS011;19055;51.064;3.712;2022-07-21T06:05:15;65.63;;;38.85;;
32649;SDS011;19055;51.064;3.712;2022-07-21T06:07:41;62.75;;;37.38;;
32649;SDS011;19055;51.064;3.712;2022-07-21T06:10:07;56.72;;;36.35;;
32649;SDS011;19055;51.064;3.712;2022-07-21T06:12:33;54.10;;;33.72;;
32649;SDS011;19055;51.064;3.712;2022-07-21T06:14:59;52.35;;;33.38;;
32649;SDS011;19055;51.064;3.712;2022-07-21T06:17:25;47.50;;;30.23;;
32649;SDS011;19055;51.064;3.712;2022-07-21T06:19:51;43.55;;;29.15;;
32649;SDS011;19055;51.064;3.712;2022-07-21T06:22:17;46.17;;;27.05;;
32649;SDS011;19055;51.064;3.712;2022-07-21T06:24:43;39.00;;;25.58;;
32649;SDS011;19055;51.064;3.712;2022-07-21T06:27:08;33.83;;;23.83;;
32649;SDS011;19055;51.064;3.712;2022-07-21T06:29:34;34.10;;;24.50;;
32649;SDS011;19055;51.064;3.712;2022-07-21T06:32:00;44.08;;;28.15;;
32649;SDS011;19055;51.064;3.712;2022-07-21T06:34:26;38.22;;;24.33;;
32649;SDS011;19055;51.064;3.712;2022-07-21T06:36:52;45.03;;;26.23;;
32649;SDS011;19055;51.064;3.712;2022-07-21T06:39:17;36.22;;;24.67;;
32649;SDS011;19055;51.064;3.712;2022-07-21T06:41:43;35.70;;;25.10;;
32649;SDS011;19055;51.064;3.712;2022-07-21T06:44:11;43.70;;;27.40;;
32649;SDS011;19055;51.064;3.712;2022-07-21T06:46:37;47.50;;;26.48;;
32649;SDS011;19055;51.064;3.712;2022-07-21T06:49:03;47.20;;;27.17;;
32649;SDS011;19055;51.064;3.712;2022-07-21T06:51:29;38.65;;;25.75;;
32649;SDS011;19055;51.064;3.712;2022-07-21T06:53:55;36.58;;;22.95;;
32649;SDS011;19055;51.064;3.712;2022-07-21T06:56:21;43.78;;;24.85;;
32649;SDS011;19055;51.064;3.712;2022-07-21T06:58:47;30.00;;;20.63;;
32649;SDS011;19055;51.064;3.712;2022-07-21T07:01:13;41.80;;;21.77;;
32649;SDS011;19055;51.064;3.712;2022-07-21T07:03:41;33.17;;;19.90;;
32649;SDS011;19055;51.064;3.712;2022-07-21T07:06:08;33.85;;;19.05;;
32649;SDS011;19055;51.064;3.712;2022-07-21T07:08:34;28.23;;;18.00;;
32649;SDS011;19055;51.064;3.712;2022-07-21T07:11:03;33.22;;;18.02;;
32649;SDS011;19055;51.064;3.712;2022-07-21T07:13:29;27.75;;;18.02;;
32649;SDS011;19055;51.064;3.712;2022-07-21T07:15:55;29.48;;;15.60;;
32649;SDS011;19055;51.064;3.712;2022-07-21T07:18:22;22.98;;;14.20;;
32649;SDS011;19055;51.064;3.712;2022-07-21T07:20:49;24.05;;;12.40;;
32649;SDS011;19055;51.064;3.712;2022-07-21T07:23:15;17.27;;;12.65;;
32649;SDS011;19055;51.064;3.712;2022-07-21T07:25:41;18.92;;;11.27;;
32649;SDS011;19055;51.064;3.712;2022-07-21T07:28:07;21.27;;;12.45;;
32649;SDS011;19055;51.064;3.712;2022-07-21T07:30:34;14.13;;;10.95;;
32649;SDS011;19055;51.064;3.712;2022-07-21T07:33:01;21.45;;;11.00;;
32649;SDS011;19055;51.064;3.712;2022-07-21T07:35:27;15.40;;;10.88;;
32649;SDS011;19055;51.064;3.712;2022-07-21T07:37:53;16.80;;;10.90;;
32649;SDS011;19055;51.064;3.712;2022-07-21T07:40:20;20.70;;;10.88;;
32649;SDS011;19055;51.064;3.712;2022-07-21T07:42:48;18.10;;;10.20;;
32649;SDS011;19055;51.064;3.712;2022-07-21T07:45:14;20.52;;;11.02;;
32649;SDS011;19055;51.064;3.712;2022-07-21T07:47:40;21.83;;;10.48;;
32649;SDS011;19055;51.064;3.712;2022-07-21T07:50:08;19.08;;;10.25;;
32649;SDS011;19055;51.064;3.712;2022-07-21T07:52:37;17.73;;;9.48;;
32649;SDS011;19055;51.064;3.712;2022-07-21T07:55:04;18.30;;;10.77;;
32649;SDS011;19055;51.064;3.712;2022-07-21T07:57:33;14.45;;;8.43;;
32649;SDS011;19055;51.064;3.712;2022-07-21T07:59:59;19.02;;;9.45;;
32649;SDS011;19055;51.064;3.712;2022-07-21T08:02:37;11.65;;;8.60;;
32649;SDS011;19055;51.064;3.712;2022-07-21T08:05:03;13.05;;;8.95;;
32649;SDS011;19055;51.064;3.712;2022-07-21T08:07:30;18.42;;;9.25;;
32649;SDS011;19055;51.064;3.712;2022-07-21T08:09:56;23.92;;;9.35;;
32649;SDS011;19055;51.064;3.712;2022-07-21T08:12:22;13.98;;;9.15;;
32649;SDS011;19055;51.064;3.712;2022-07-21T08:14:48;12.63;;;8.32;;
32649;SDS011;19055;51.064;3.712;2022-07-21T08:17:13;14.50;;;8.38;;
32649;SDS011;19055;51.064;3.712;2022-07-21T08:19:41;14.45;;;7.85;;
32649;SDS011;19055;51.064;3.712;2022-07-21T08:22:08;20.60;;;9.05;;
32649;SDS011;19055;51.064;3.712;2022-07-21T08:24:34;16.25;;;8.40;;
32649;SDS011;19055;51.064;3.712;2022-07-21T08:27:00;14.57;;;8.15;;
32649;SDS011;19055;51.064;3.712;2022-07-21T08:29:25;14.52;;;8.35;;
32649;SDS011;19055;51.064;3.712;2022-07-21T08:31:51;16.65;;;8.00;;
32649;SDS011;19055;51.064;3.712;2022-07-21T08:34:17;15.43;;;8.05;;
32649;SDS011;19055;51.064;3.712;2022-07-21T08:36:43;13.55;;;7.80;;
32649;SDS011;19055;51.064;3.712;2022-07-21T08:39:09;11.48;;;7.38;;
32649;SDS011;19055;51.064;3.712;2022-07-21T08:41:35;15.20;;;7.65;;
32649;SDS011;19055;51.064;3.712;2022-07-21T08:44:02;14.82;;;7.63;;
32649;SDS011;19055;51.064;3.712;2022-07-21T08:46:34;18.17;;;8.30;;
32649;SDS011;19055;51.064;3.712;2022-07-21T08:49:01;17.42;;;7.85;;
32649;SDS011;19055;51.064;3.712;2022-07-21T08:51:28;13.27;;;7.90;;
32649;SDS011;19055;51.064;3.712;2022-07-21T08:53:58;13.63;;;7.72;;
32649;SDS011;19055;51.064;3.712;2022-07-21T08:56:24;11.98;;;7.00;;
32649;SDS011;19055;51.064;3.712;2022-07-21T08:58:50;15.57;;;7.60;;
32649;SDS011;19055;51.064;3.712;2022-07-21T09:01:16;13.93;;;8.00;;
32649;SDS011;19055;51.064;3.712;2022-07-21T09:03:42;21.17;;;9.02;;
32649;SDS011;19055;51.064;3.712;2022-07-21T09:06:12;15.75;;;7.78;;
32649;SDS011;19055;51.064;3.712;2022-07-21T09:08:41;15.97;;;7.77;;
32649;SDS011;19055;51.064;3.712;2022-07-21T09:11:16;17.92;;;8.23;;
32649;SDS011;19055;51.064;3.712;2022-07-21T09:13:51;20.08;;;8.35;;
32649;SDS011;19055;51.064;3.712;2022-07-21T09:16:38;13.13;;;7.55;;
32649;SDS011;19055;51.064;3.712;2022-07-21T09:21:48;18.27;;;8.48;;
32649;SDS011;19055;51.064;3.712;2022-07-21T09:24:20;18.25;;;8.40;;
32649;SDS011;19055;51.064;3.712;2022-07-21T09:32:18;20.48;;;7.80;;
32649;SDS011;19055;51.064;3.712;2022-07-21T09:34:47;16.10;;;7.40;;
32649;SDS011;19055;51.064;3.712;2022-07-21T09:37:14;14.63;;;8.98;;
32649;SDS011;19055;51.064;3.712;2022-07-21T09:39:44;15.73;;;7.32;;
32649;SDS011;19055;51.064;3.712;2022-07-21T09:42:16;16.08;;;7.53;;
32649;SDS011;19055;51.064;3.712;2022-07-21T09:44:47;12.15;;;6.28;;
32649;SDS011;19055;51.064;3.712;2022-07-21T09:47:16;13.90;;;6.47;;
32649;SDS011;19055;51.064;3.712;2022-07-21T09:49:43;15.60;;;6.60;;
32649;SDS011;19055;51.064;3.712;2022-07-21T09:52:23;13.75;;;6.57;;
32649;SDS011;19055;51.064;3.712;2022-07-21T09:54:51;14.60;;;5.95;;
32649;SDS011;19055;51.064;3.712;2022-07-21T09:57:19;15.07;;;7.43;;
32649;SDS011;19055;51.064;3.712;2022-07-21T09:59:46;11.68;;;5.55;;
32649;SDS011;19055;51.064;3.712;2022-07-21T10:02:18;20.08;;;8.18;;
32649;SDS011;19055;51.064;3.712;2022-07-21T10:05:09;11.30;;;5.28;;
32649;SDS011;19055;51.064;3.712;2022-07-21T10:07:42;12.57;;;5.75;;
32649;SDS011;19055;51.064;3.712;2022-07-21T10:10:10;13.85;;;5.07;;
32649;SDS011;19055;51.064;3.712;2022-07-21T10:12:36;14.60;;;5.25;;
32649;SDS011;19055;51.064;3.712;2022-07-21T10:15:03;13.90;;;5.53;;
32649;SDS011;19055;51.064;3.712;2022-07-21T10:17:29;11.57;;;5.20;;
32649;SDS011;19055;51.064;3.712;2022-07-21T10:25:47;12.43;;;5.20;;
32649;SDS011;19055;51.064;3.712;2022-07-21T10:30:44;14.68;;;5.97;;
32649;SDS011;19055;51.064;3.712;2022-07-21T10:33:12;12.60;;;6.63;;
32649;SDS011;19055;51.064;3.712;2022-07-21T10:35:43;12.15;;;5.45;;
32649;SDS011;19055;51.064;3.712;2022-07-21T10:41:09;12.95;;;5.65;;
32649;SDS011;19055;51.064;3.712;2022-07-21T10:57:36;12.07;;;5.22;;
32649;SDS011;19055;51.064;3.712;2022-07-21T11:02:59;12.57;;;4.93;;
32649;SDS011;19055;51.064;3.712;2022-07-21T11:05:28;8.32;;;4.55;;
32649;SDS011;19055;51.064;3.712;2022-07-21T11:08:15;13.68;;;5.53;;
32649;SDS011;19055;51.064;3.712;2022-07-21T11:10:47;12.82;;;4.57;;
32649;SDS011;19055;51.064;3.712;2022-07-21T11:13:15;12.40;;;4.63;;
32649;SDS011;19055;51.064;3.712;2022-07-21T11:18:23;12.38;;;4.57;;
32649;SDS011;19055;51.064;3.712;2022-07-21T11:21:13;12.63;;;5.13;;
32649;SDS011;19055;51.064;3.712;2022-07-21T11:23:47;9.57;;;5.38;;
32649;SDS011;19055;51.064;3.712;2022-07-21T11:26:18;9.70;;;4.40;;
32649;SDS011;19055;51.064;3.712;2022-07-21T11:28:53;12.88;;;4.82;;
32649;SDS011;19055;51.064;3.712;2022-07-21T11:31:31;12.38;;;4.93;;
32649;SDS011;19055;51.064;3.712;2022-07-21T11:33:57;14.30;;;5.10;;
32649;SDS011;19055;51.064;3.712;2022-07-21T11:36:30;17.30;;;5.20;;
32649;SDS011;19055;51.064;3.712;2022-07-21T11:38:58;13.80;;;4.88;;
32649;SDS011;19055;51.064;3.712;2022-07-21T11:41:26;17.15;;;5.57;;
32649;SDS011;19055;51.064;3.712;2022-07-21T11:43:51;16.02;;;5.50;;
32649;SDS011;19055;51.064;3.712;2022-07-21T11:46:17;13.82;;;5.28;;
32649;SDS011;19055;51.064;3.712;2022-07-21T11:48:44;20.15;;;5.70;;
32649;SDS011;19055;51.064;3.712;2022-07-21T11:51:11;16.45;;;5.40;;
32649;SDS011;19055;51.064;3.712;2022-07-21T11:53:42;13.55;;;5.43;;
32649;SDS011;19055;51.064;3.712;2022-07-21T11:56:12;18.05;;;5.95;;
32649;SDS011;19055;51.064;3.712;2022-07-21T11:58:40;13.65;;;5.00;;
32649;SDS011;19055;51.064;3.712;2022-07-21T12:01:07;15.68;;;4.78;;
32649;SDS011;19055;51.064;3.712;2022-07-21T12:03:33;19.35;;;5.45;;
32649;SDS011;19055;51.064;3.712;2022-07-21T12:06:00;12.65;;;5.35;;
32649;SDS011;19055;51.064;3.712;2022-07-21T12:08:27;10.40;;;4.50;;
32649;SDS011;19055;51.064;3.712;2022-07-21T12:11:07;18.52;;;5.18;;
32649;SDS011;19055;51.064;3.712;2022-07-21T12:13:58;18.17;;;5.60;;
32649;SDS011;19055;51.064;3.712;2022-07-21T12:16:24;14.57;;;5.55;;
32649;SDS011;19055;51.064;3.712;2022-07-21T12:19:09;20.83;;;5.22;;
32649;SDS011;19055;51.064;3.712;2022-07-21T12:21:54;15.68;;;4.72;;
32649;SDS011;19055;51.064;3.712;2022-07-21T12:24:20;16.38;;;5.05;;
32649;SDS011;19055;51.064;3.712;2022-07-21T12:26:49;16.17;;;5.05;;
32649;SDS011;19055;51.064;3.712;2022-07-21T12:29:27;14.55;;;5.25;;
32649;SDS011;19055;51.064;3.712;2022-07-21T12:31:55;14.93;;;5.00;;
32649;SDS011;19055;51.064;3.712;2022-07-21T12:34:21;12.45;;;5.25;;
32649;SDS011;19055;51.064;3.712;2022-07-21T12:36:49;18.48;;;5.28;;
32649;SDS011;19055;51.064;3.712;2022-07-21T12:39:16;19.08;;;5.47;;
32649;SDS011;19055;51.064;3.712;2022-07-21T12:42:07;19.35;;;5.80;;
32649;SDS011;19055;51.064;3.712;2022-07-21T12:44:35;14.90;;;5.00;;
32649;SDS011;19055;51.064;3.712;2022-07-21T12:47:12;17.80;;;5.93;;
32649;SDS011;19055;51.064;3.712;2022-07-21T12:52:29;13.88;;;4.95;;
32649;SDS011;19055;51.064;3.712;2022-07-21T12:54:57;16.08;;;4.97;;
32649;SDS011;19055;51.064;3.712;2022-07-21T12:57:28;12.73;;;4.72;;
32649;SDS011;19055;51.064;3.712;2022-07-21T12:59:56;12.57;;;4.35;;
32649;SDS011;19055;51.064;3.712;2022-07-21T13:02:23;15.20;;;4.50;;
32649;SDS011;19055;51.064;3.712;2022-07-21T13:04:50;15.65;;;4.85;;
32649;SDS011;19055;51.064;3.712;2022-07-21T13:07:16;16.48;;;4.50;;
32649;SDS011;19055;51.064;3.712;2022-07-21T13:09:42;17.88;;;4.75;;
32649;SDS011;19055;51.064;3.712;2022-07-21T13:12:13;15.73;;;5.28;;
32649;SDS011;19055;51.064;3.712;2022-07-21T13:14:40;14.05;;;4.60;;
32649;SDS011;19055;51.064;3.712;2022-07-21T13:17:07;14.48;;;4.72;;
32649;SDS011;19055;51.064;3.712;2022-07-21T13:19:34;19.35;;;4.88;;
32649;SDS011;19055;51.064;3.712;2022-07-21T13:22:03;12.27;;;4.47;;
32649;SDS011;19055;51.064;3.712;2022-07-21T13:24:29;9.65;;;4.72;;
32649;SDS011;19055;51.064;3.712;2022-07-21T13:26:55;21.63;;;11.00;;
32649;SDS011;19055;51.064;3.712;2022-07-21T13:29:21;11.50;;;4.32;;
32649;SDS011;19055;51.064;3.712;2022-07-21T13:31:50;11.88;;;4.60;;
32649;SDS011;19055;51.064;3.712;2022-07-21T13:34:16;10.73;;;4.40;;
32649;SDS011;19055;51.064;3.712;2022-07-21T13:36:42;10.95;;;4.30;;
32649;SDS011;19055;51.064;3.712;2022-07-21T13:39:09;10.38;;;4.57;;
32649;SDS011;19055;51.064;3.712;2022-07-21T13:41:35;15.07;;;4.63;;
32649;SDS011;19055;51.064;3.712;2022-07-21T13:44:03;11.25;;;3.50;;
32649;SDS011;19055;51.064;3.712;2022-07-21T13:46:29;12.43;;;3.60;;
32649;SDS011;19055;51.064;3.712;2022-07-21T13:48:56;12.52;;;4.72;;
32649;SDS011;19055;51.064;3.712;2022-07-21T13:51:22;10.15;;;3.63;;
32649;SDS011;19055;51.064;3.712;2022-07-21T13:53:49;11.68;;;3.88;;
32649;SDS011;19055;51.064;3.712;2022-07-21T13:56:17;12.05;;;3.90;;
32649;SDS011;19055;51.064;3.712;2022-07-21T13:58:43;14.65;;;4.47;;
32649;SDS011;19055;51.064;3.712;2022-07-21T14:01:10;15.30;;;4.25;;
32649;SDS011;19055;51.064;3.712;2022-07-21T14:03:37;10.52;;;4.03;;
32649;SDS011;19055;51.064;3.712;2022-07-21T14:06:03;13.52;;;4.35;;
32649;SDS011;19055;51.064;3.712;2022-07-21T14:08:29;13.75;;;4.70;;
32649;SDS011;19055;51.064;3.712;2022-07-21T14:10:55;13.57;;;3.90;;
32649;SDS011;19055;51.064;3.712;2022-07-21T14:13:21;16.92;;;4.90;;
32649;SDS011;19055;51.064;3.712;2022-07-21T14:15:47;16.27;;;4.30;;
32649;SDS011;19055;51.064;3.712;2022-07-21T14:18:13;11.90;;;4.15;;
32649;SDS011;19055;51.064;3.712;2022-07-21T14:20:39;12.43;;;3.75;;
32649;SDS011;19055;51.064;3.712;2022-07-21T14:23:06;20.75;;;5.65;;
32649;SDS011;19055;51.064;3.712;2022-07-21T14:25:34;17.38;;;4.53;;
32649;SDS011;19055;51.064;3.712;2022-07-21T14:28:03;17.77;;;5.35;;
32649;SDS011;19055;51.064;3.712;2022-07-21T14:30:29;13.55;;;4.32;;
32649;SDS011;19055;51.064;3.712;2022-07-21T14:32:56;15.82;;;4.85;;
32649;SDS011;19055;51.064;3.712;2022-07-21T14:35:22;16.15;;;4.53;;
32649;SDS011;19055;51.064;3.712;2022-07-21T14:37:50;15.98;;;4.60;;
32649;SDS011;19055;51.064;3.712;2022-07-21T14:40:17;13.90;;;4.38;;
32649;SDS011;19055;51.064;3.712;2022-07-21T14:42:45;15.85;;;4.57;;
32649;SDS011;19055;51.064;3.712;2022-07-21T14:45:13;14.93;;;4.53;;
32649;SDS011;19055;51.064;3.712;2022-07-21T14:47:41;13.45;;;4.47;;
32649;SDS011;19055;51.064;3.712;2022-07-21T14:50:07;14.90;;;4.72;;
32649;SDS011;19055;51.064;3.712;2022-07-21T14:52:35;11.88;;;4.00;;
32649;SDS011;19055;51.064;3.712;2022-07-21T14:55:02;17.52;;;4.22;;
32649;SDS011;19055;51.064;3.712;2022-07-21T14:57:33;16.90;;;4.18;;
32649;SDS011;19055;51.064;3.712;2022-07-21T15:00:04;17.60;;;4.50;;
32649;SDS011;19055;51.064;3.712;2022-07-21T15:02:32;16.17;;;4.30;;
32649;SDS011;19055;51.064;3.712;2022-07-21T15:04:59;12.38;;;3.85;;
32649;SDS011;19055;51.064;3.712;2022-07-21T15:07:25;17.50;;;4.40;;
32649;SDS011;19055;51.064;3.712;2022-07-21T15:09:52;15.18;;;4.43;;
32649;SDS011;19055;51.064;3.712;2022-07-21T15:12:21;13.98;;;4.40;;
32649;SDS011;19055;51.064;3.712;2022-07-21T15:14:48;14.15;;;3.83;;